Terminal Aerodrome Forecast
Issued by NWS

Home | Current Version | Previous Version | Graphics & Text | Print | Product List | Glossary On
Versions: 1 2 3 4 5 6 7 8 9 10 11 12 13 14 15 16 17 18 19 20 21 22 23
000
FTUS43 KBIS 291020 AAC
TAFJMS
TAF AMD
KJMS 291020Z 2910/3006 30004KT 3SM BR SCT200
      TEMPO 2910/2913 1/2SM FG OVC002
     FM291400 30012KT P6SM FEW090
     FM300100 28008KT P6SM SKC
     FM300400 23004KT P6SM FEW250=

USA.gov is the U.S. government's official web portal to all federal, state and local government web resources and services.